LKCV

Details ICAO LKCV
Name Caslav
Region Czech Republic
Timezone Europe/Prague (UTC+1.0)
Plans Departing 10
Arriving 3
Stats Elevation 793 ft / 242 m (AMSL)
Location 49.939289° 15.381538°
Runways 2
Magnetic Variation 4.130° E
Sunrise 2017-12-12 06:48:58 UTC / 2017-12-12 07:48:58 Local
Sunset 2017-12-12 14:58:16 UTC / 2017-12-12 15:58:16 Local
Advertisement - Login to hide

Runways

ID Width Length Bearing (true) Bearing (mag) Surface Threshold Offset Overrun Length
13L 197 ft / 60 m 7,878 ft / 2,401 m 137.35° 133.22° Concrete 0 ft / 0 m 492 ft / 150 m
13R 164 ft / 50 m 5,245 ft / 1,599 m 137.47° 133.34° Grass 0 ft / 0 m 0 ft / 0 m
31L 164 ft / 50 m 5,245 ft / 1,599 m 317.48° 313.35° Grass 0 ft / 0 m 0 ft / 0 m
31R 197 ft / 60 m 7,878 ft / 2,401 m 317.37° 313.24° Concrete 0 ft / 0 m 492 ft / 150 m

Map

Weather


0- 5 10 15 20 25 30 35+ Temperature / ° C

Clouds and Precipitation
Forecast for 2017-12-12 18:00 UTC. Updated an hour ago

Ground ~20,000 ft ~40,000 ft Winds

METAR

LKCV 121600Z 26010KT 9999 OVC040 04/M03 Q1011 NOSIG RMK BLU BLU

TAF

TAF LKCV 121100Z 1212/1312 24016G26KT CAVOK PROB40 TEMPO 1212/1214 24022G32KT BECMG 1215/1217 25010KT

Frequencies

Tower 118.25 MHz TWR
Approach 123.67 MHz APP
Tower 133.00 MHz TWR
Warning: Do not use this data for real-world aviation or navigation. No guarantee of current accuracy is given.